sensor_id;sensor_type;location;lat;lon;timestamp;P1;durP1;ratioP1;P2;durP2;ratioP2
2930;SDS011;1475;51.454;7.150;2022-08-04T00:01:28;10.82;;;3.30;;
2930;SDS011;1475;51.454;7.150;2022-08-04T00:04:00;6.38;;;2.65;;
2930;SDS011;1475;51.454;7.150;2022-08-04T00:06:33;8.10;;;3.15;;
2930;SDS011;1475;51.454;7.150;2022-08-04T00:09:15;7.20;;;2.60;;
2930;SDS011;1475;51.454;7.150;2022-08-04T00:11:50;7.27;;;3.67;;
2930;SDS011;1475;51.454;7.150;2022-08-04T00:14:20;7.43;;;2.50;;
2930;SDS011;1475;51.454;7.150;2022-08-04T00:16:48;5.72;;;2.53;;
2930;SDS011;1475;51.454;7.150;2022-08-04T00:19:20;4.95;;;2.60;;
2930;SDS011;1475;51.454;7.150;2022-08-04T00:21:54;7.50;;;3.20;;
2930;SDS011;1475;51.454;7.150;2022-08-04T00:24:27;8.00;;;2.75;;
2930;SDS011;1475;51.454;7.150;2022-08-04T00:26:55;5.70;;;2.97;;
2930;SDS011;1475;51.454;7.150;2022-08-04T00:29:23;5.75;;;2.58;;
2930;SDS011;1475;51.454;7.150;2022-08-04T00:31:52;5.75;;;2.65;;
2930;SDS011;1475;51.454;7.150;2022-08-04T00:34:21;6.90;;;3.10;;
2930;SDS011;1475;51.454;7.150;2022-08-04T00:36:49;9.10;;;3.53;;
2930;SDS011;1475;51.454;7.150;2022-08-04T00:39:18;6.15;;;2.45;;
2930;SDS011;1475;51.454;7.150;2022-08-04T00:41:50;7.40;;;3.00;;
2930;SDS011;1475;51.454;7.150;2022-08-04T00:44:29;5.95;;;2.88;;
2930;SDS011;1475;51.454;7.150;2022-08-04T00:47:06;6.85;;;2.97;;
2930;SDS011;1475;51.454;7.150;2022-08-04T00:49:51;6.72;;;2.40;;
2930;SDS011;1475;51.454;7.150;2022-08-04T00:55:41;8.03;;;3.30;;
2930;SDS011;1475;51.454;7.150;2022-08-04T00:58:28;7.95;;;2.83;;
2930;SDS011;1475;51.454;7.150;2022-08-04T01:01:02;5.47;;;2.70;;
2930;SDS011;1475;51.454;7.150;2022-08-04T01:03:33;6.72;;;2.70;;
2930;SDS011;1475;51.454;7.150;2022-08-04T01:06:17;4.72;;;2.35;;
2930;SDS011;1475;51.454;7.150;2022-08-04T01:08:58;8.55;;;2.42;;
2930;SDS011;1475;51.454;7.150;2022-08-04T01:11:48;6.70;;;2.80;;
2930;SDS011;1475;51.454;7.150;2022-08-04T01:17:27;6.80;;;2.60;;
2930;SDS011;1475;51.454;7.150;2022-08-04T01:20:04;6.60;;;3.00;;
2930;SDS011;1475;51.454;7.150;2022-08-04T01:22:46;4.70;;;2.28;;
2930;SDS011;1475;51.454;7.150;2022-08-04T01:25:40;6.43;;;2.55;;
2930;SDS011;1475;51.454;7.150;2022-08-04T01:28:28;7.00;;;2.70;;
2930;SDS011;1475;51.454;7.150;2022-08-04T01:31:05;5.57;;;2.38;;
2930;SDS011;1475;51.454;7.150;2022-08-04T01:33:36;6.80;;;2.63;;
2930;SDS011;1475;51.454;7.150;2022-08-04T01:36:05;6.07;;;2.90;;
2930;SDS011;1475;51.454;7.150;2022-08-04T01:38:35;7.43;;;2.80;;
2930;SDS011;1475;51.454;7.150;2022-08-04T01:41:04;6.40;;;2.30;;
2930;SDS011;1475;51.454;7.150;2022-08-04T01:43:33;6.40;;;2.80;;
2930;SDS011;1475;51.454;7.150;2022-08-04T01:46:03;5.65;;;2.65;;
2930;SDS011;1475;51.454;7.150;2022-08-04T01:48:31;10.25;;;3.08;;
2930;SDS011;1475;51.454;7.150;2022-08-04T01:51:02;7.43;;;3.25;;
2930;SDS011;1475;51.454;7.150;2022-08-04T01:53:31;6.85;;;2.58;;
2930;SDS011;1475;51.454;7.150;2022-08-04T01:55:59;5.72;;;2.45;;
2930;SDS011;1475;51.454;7.150;2022-08-04T01:58:28;5.95;;;2.50;;
2930;SDS011;1475;51.454;7.150;2022-08-04T02:00:56;5.32;;;2.30;;
2930;SDS011;1475;51.454;7.150;2022-08-04T02:03:28;6.88;;;2.72;;
2930;SDS011;1475;51.454;7.150;2022-08-04T02:05:58;5.60;;;2.80;;
2930;SDS011;1475;51.454;7.150;2022-08-04T02:08:34;5.50;;;2.85;;
2930;SDS011;1475;51.454;7.150;2022-08-04T02:11:12;5.90;;;3.10;;
2930;SDS011;1475;51.454;7.150;2022-08-04T02:13:44;6.90;;;3.00;;
2930;SDS011;1475;51.454;7.150;2022-08-04T02:16:21;6.80;;;3.00;;
2930;SDS011;1475;51.454;7.150;2022-08-04T02:18:59;6.75;;;2.78;;
2930;SDS011;1475;51.454;7.150;2022-08-04T02:21:30;6.83;;;2.23;;
2930;SDS011;1475;51.454;7.150;2022-08-04T02:24:00;7.65;;;2.70;;
2930;SDS011;1475;51.454;7.150;2022-08-04T02:26:31;8.50;;;3.00;;
2930;SDS011;1475;51.454;7.150;2022-08-04T02:29:02;5.47;;;3.00;;
2930;SDS011;1475;51.454;7.150;2022-08-04T02:31:37;5.80;;;3.08;;
2930;SDS011;1475;51.454;7.150;2022-08-04T02:34:11;7.78;;;2.80;;
2930;SDS011;1475;51.454;7.150;2022-08-04T02:36:42;6.15;;;2.40;;
2930;SDS011;1475;51.454;7.150;2022-08-04T02:39:13;6.32;;;2.70;;
2930;SDS011;1475;51.454;7.150;2022-08-04T02:41:45;8.10;;;3.10;;
2930;SDS011;1475;51.454;7.150;2022-08-04T02:44:12;5.47;;;2.70;;
2930;SDS011;1475;51.454;7.150;2022-08-04T02:46:44;7.30;;;3.00;;
2930;SDS011;1475;51.454;7.150;2022-08-04T02:49:14;5.88;;;2.80;;
2930;SDS011;1475;51.454;7.150;2022-08-04T02:51:45;5.40;;;2.65;;
2930;SDS011;1475;51.454;7.150;2022-08-04T02:54:16;4.93;;;2.78;;
2930;SDS011;1475;51.454;7.150;2022-08-04T02:56:45;6.70;;;3.10;;
2930;SDS011;1475;51.454;7.150;2022-08-04T02:59:14;4.72;;;2.72;;
2930;SDS011;1475;51.454;7.150;2022-08-04T03:01:43;4.00;;;2.50;;
2930;SDS011;1475;51.454;7.150;2022-08-04T03:04:13;4.78;;;2.30;;
2930;SDS011;1475;51.454;7.150;2022-08-04T03:07:10;5.07;;;2.80;;
2930;SDS011;1475;51.454;7.150;2022-08-04T03:10:07;6.80;;;3.30;;
2930;SDS011;1475;51.454;7.150;2022-08-04T03:16:02;5.60;;;3.15;;
2930;SDS011;1475;51.454;7.150;2022-08-04T03:19:06;7.80;;;3.70;;
2930;SDS011;1475;51.454;7.150;2022-08-04T03:25:18;7.18;;;3.83;;
2930;SDS011;1475;51.454;7.150;2022-08-04T03:30:58;5.50;;;3.00;;
2930;SDS011;1475;51.454;7.150;2022-08-04T03:33:44;5.73;;;3.20;;
2930;SDS011;1475;51.454;7.150;2022-08-04T03:39:39;6.35;;;3.33;;
2930;SDS011;1475;51.454;7.150;2022-08-04T03:42:33;8.15;;;3.50;;
2930;SDS011;1475;51.454;7.150;2022-08-04T03:45:22;6.93;;;3.28;;
2930;SDS011;1475;51.454;7.150;2022-08-04T03:48:09;5.70;;;3.10;;
2930;SDS011;1475;51.454;7.150;2022-08-04T03:51:16;6.03;;;3.10;;
2930;SDS011;1475;51.454;7.150;2022-08-04T03:57:17;5.38;;;3.10;;
2930;SDS011;1475;51.454;7.150;2022-08-04T04:00:06;6.57;;;3.10;;
2930;SDS011;1475;51.454;7.150;2022-08-04T04:02:47;5.50;;;2.80;;
2930;SDS011;1475;51.454;7.150;2022-08-04T04:05:40;6.28;;;3.80;;
2930;SDS011;1475;51.454;7.150;2022-08-04T04:08:46;8.40;;;3.20;;
2930;SDS011;1475;51.454;7.150;2022-08-04T04:14:54;5.20;;;3.30;;
2930;SDS011;1475;51.454;7.150;2022-08-04T04:17:43;7.80;;;3.63;;
2930;SDS011;1475;51.454;7.150;2022-08-04T04:23:21;6.63;;;3.47;;
2930;SDS011;1475;51.454;7.150;2022-08-04T04:26:00;6.57;;;3.47;;
2930;SDS011;1475;51.454;7.150;2022-08-04T04:28:49;6.95;;;3.20;;
2930;SDS011;1475;51.454;7.150;2022-08-04T04:31:36;9.60;;;3.97;;
2930;SDS011;1475;51.454;7.150;2022-08-04T04:34:15;6.88;;;3.20;;
2930;SDS011;1475;51.454;7.150;2022-08-04T04:36:55;7.18;;;3.55;;
2930;SDS011;1475;51.454;7.150;2022-08-04T04:39:36;7.20;;;4.10;;
2930;SDS011;1475;51.454;7.150;2022-08-04T04:45:16;5.72;;;3.10;;
2930;SDS011;1475;51.454;7.150;2022-08-04T04:47:55;6.50;;;3.83;;
2930;SDS011;1475;51.454;7.150;2022-08-04T04:50:34;6.10;;;3.28;;
2930;SDS011;1475;51.454;7.150;2022-08-04T04:53:11;5.35;;;3.58;;
2930;SDS011;1475;51.454;7.150;2022-08-04T04:55:46;5.70;;;2.85;;
2930;SDS011;1475;51.454;7.150;2022-08-04T04:58:18;5.40;;;3.40;;
2930;SDS011;1475;51.454;7.150;2022-08-04T05:00:58;7.30;;;3.70;;
2930;SDS011;1475;51.454;7.150;2022-08-04T05:03:50;7.90;;;3.45;;
2930;SDS011;1475;51.454;7.150;2022-08-04T05:06:39;6.20;;;3.00;;
2930;SDS011;1475;51.454;7.150;2022-08-04T05:09:21;7.90;;;3.30;;
2930;SDS011;1475;51.454;7.150;2022-08-04T05:12:20;7.43;;;3.40;;
2930;SDS011;1475;51.454;7.150;2022-08-04T05:15:00;5.60;;;3.50;;
2930;SDS011;1475;51.454;7.150;2022-08-04T05:17:33;7.30;;;3.42;;
2930;SDS011;1475;51.454;7.150;2022-08-04T05:20:06;4.80;;;2.97;;
2930;SDS011;1475;51.454;7.150;2022-08-04T05:22:36;6.40;;;3.92;;
2930;SDS011;1475;51.454;7.150;2022-08-04T05:25:07;5.10;;;3.33;;
2930;SDS011;1475;51.454;7.150;2022-08-04T05:27:40;5.15;;;3.03;;
2930;SDS011;1475;51.454;7.150;2022-08-04T05:30:15;5.53;;;3.75;;
2930;SDS011;1475;51.454;7.150;2022-08-04T05:32:45;5.78;;;3.50;;
2930;SDS011;1475;51.454;7.150;2022-08-04T05:35:19;6.50;;;3.70;;
2930;SDS011;1475;51.454;7.150;2022-08-04T05:37:47;5.90;;;3.40;;
2930;SDS011;1475;51.454;7.150;2022-08-04T05:40:16;5.35;;;3.40;;
2930;SDS011;1475;51.454;7.150;2022-08-04T05:42:44;6.47;;;4.22;;
2930;SDS011;1475;51.454;7.150;2022-08-04T05:45:13;6.80;;;3.40;;
2930;SDS011;1475;51.454;7.150;2022-08-04T05:47:40;5.70;;;3.72;;
2930;SDS011;1475;51.454;7.150;2022-08-04T05:50:08;5.95;;;3.25;;
2930;SDS011;1475;51.454;7.150;2022-08-04T05:52:37;9.00;;;3.50;;
2930;SDS011;1475;51.454;7.150;2022-08-04T05:55:05;4.55;;;3.00;;
2930;SDS011;1475;51.454;7.150;2022-08-04T05:57:33;4.00;;;3.17;;
2930;SDS011;1475;51.454;7.150;2022-08-04T06:00:03;5.43;;;3.10;;
2930;SDS011;1475;51.454;7.150;2022-08-04T06:02:32;9.70;;;3.30;;
2930;SDS011;1475;51.454;7.150;2022-08-04T06:05:00;5.43;;;3.50;;
2930;SDS011;1475;51.454;7.150;2022-08-04T06:07:29;5.70;;;2.92;;
2930;SDS011;1475;51.454;7.150;2022-08-04T06:09:58;7.95;;;3.55;;
2930;SDS011;1475;51.454;7.150;2022-08-04T06:12:27;3.97;;;2.70;;
2930;SDS011;1475;51.454;7.150;2022-08-04T06:14:59;4.72;;;3.13;;
2930;SDS011;1475;51.454;7.150;2022-08-04T06:17:29;5.20;;;3.15;;
2930;SDS011;1475;51.454;7.150;2022-08-04T06:19:58;5.25;;;3.10;;
2930;SDS011;1475;51.454;7.150;2022-08-04T06:22:28;3.90;;;2.30;;
2930;SDS011;1475;51.454;7.150;2022-08-04T06:24:59;6.60;;;3.33;;
2930;SDS011;1475;51.454;7.150;2022-08-04T06:27:28;4.57;;;2.50;;
2930;SDS011;1475;51.454;7.150;2022-08-04T06:29:56;5.65;;;2.95;;
2930;SDS011;1475;51.454;7.150;2022-08-04T06:32:24;4.37;;;2.77;;
2930;SDS011;1475;51.454;7.150;2022-08-04T06:35:01;6.72;;;3.28;;
2930;SDS011;1475;51.454;7.150;2022-08-04T06:37:31;4.57;;;3.00;;
2930;SDS011;1475;51.454;7.150;2022-08-04T06:40:01;4.88;;;2.92;;
2930;SDS011;1475;51.454;7.150;2022-08-04T06:42:29;6.63;;;3.80;;
2930;SDS011;1475;51.454;7.150;2022-08-04T06:44:56;4.20;;;2.75;;
2930;SDS011;1475;51.454;7.150;2022-08-04T06:47:24;3.65;;;2.72;;
2930;SDS011;1475;51.454;7.150;2022-08-04T06:49:52;6.40;;;3.22;;
2930;SDS011;1475;51.454;7.150;2022-08-04T06:52:20;4.60;;;2.67;;
2930;SDS011;1475;51.454;7.150;2022-08-04T06:54:49;5.20;;;3.20;;
2930;SDS011;1475;51.454;7.150;2022-08-04T06:57:19;5.53;;;2.90;;
2930;SDS011;1475;51.454;7.150;2022-08-04T06:59:49;5.22;;;2.83;;
2930;SDS011;1475;51.454;7.150;2022-08-04T07:02:19;4.75;;;3.13;;
2930;SDS011;1475;51.454;7.150;2022-08-04T07:04:49;5.13;;;2.80;;
2930;SDS011;1475;51.454;7.150;2022-08-04T07:07:16;4.30;;;2.78;;
2930;SDS011;1475;51.454;7.150;2022-08-04T07:09:45;4.63;;;2.90;;
2930;SDS011;1475;51.454;7.150;2022-08-04T07:12:12;3.13;;;2.58;;
2930;SDS011;1475;51.454;7.150;2022-08-04T07:14:45;4.07;;;2.70;;
2930;SDS011;1475;51.454;7.150;2022-08-04T07:17:13;4.53;;;2.60;;
2930;SDS011;1475;51.454;7.150;2022-08-04T07:19:41;4.07;;;3.10;;
2930;SDS011;1475;51.454;7.150;2022-08-04T07:22:09;3.75;;;2.63;;
2930;SDS011;1475;51.454;7.150;2022-08-04T07:24:37;5.60;;;3.30;;
2930;SDS011;1475;51.454;7.150;2022-08-04T07:27:04;4.70;;;2.90;;
2930;SDS011;1475;51.454;7.150;2022-08-04T07:29:31;17.40;;;3.60;;
2930;SDS011;1475;51.454;7.150;2022-08-04T07:32:04;5.80;;;3.00;;
2930;SDS011;1475;51.454;7.150;2022-08-04T07:34:31;4.60;;;2.80;;
2930;SDS011;1475;51.454;7.150;2022-08-04T07:36:59;5.10;;;3.15;;
2930;SDS011;1475;51.454;7.150;2022-08-04T07:39:26;4.28;;;3.10;;
2930;SDS011;1475;51.454;7.150;2022-08-04T07:41:56;5.20;;;2.92;;
2930;SDS011;1475;51.454;7.150;2022-08-04T07:44:25;5.70;;;2.95;;
2930;SDS011;1475;51.454;7.150;2022-08-04T07:46:52;4.70;;;3.10;;
2930;SDS011;1475;51.454;7.150;2022-08-04T07:49:21;4.38;;;2.75;;
2930;SDS011;1475;51.454;7.150;2022-08-04T07:51:48;4.95;;;2.80;;
2930;SDS011;1475;51.454;7.150;2022-08-04T07:54:16;5.80;;;2.95;;
2930;SDS011;1475;51.454;7.150;2022-08-04T07:56:43;4.85;;;2.90;;
2930;SDS011;1475;51.454;7.150;2022-08-04T07:59:10;3.63;;;2.90;;
2930;SDS011;1475;51.454;7.150;2022-08-04T08:01:37;4.43;;;2.60;;
2930;SDS011;1475;51.454;7.150;2022-08-04T08:04:05;6.38;;;3.00;;
2930;SDS011;1475;51.454;7.150;2022-08-04T08:06:35;4.72;;;3.00;;
2930;SDS011;1475;51.454;7.150;2022-08-04T08:09:08;4.95;;;3.05;;
2930;SDS011;1475;51.454;7.150;2022-08-04T08:11:36;4.27;;;2.70;;
2930;SDS011;1475;51.454;7.150;2022-08-04T08:14:03;4.75;;;2.50;;
2930;SDS011;1475;51.454;7.150;2022-08-04T08:16:32;5.10;;;2.70;;
2930;SDS011;1475;51.454;7.150;2022-08-04T08:18:59;4.10;;;2.88;;
2930;SDS011;1475;51.454;7.150;2022-08-04T08:21:27;4.30;;;2.70;;
2930;SDS011;1475;51.454;7.150;2022-08-04T08:23:55;5.57;;;2.67;;
2930;SDS011;1475;51.454;7.150;2022-08-04T08:26:22;3.75;;;2.55;;
2930;SDS011;1475;51.454;7.150;2022-08-04T08:28:49;6.55;;;2.90;;
2930;SDS011;1475;51.454;7.150;2022-08-04T08:31:17;5.80;;;3.08;;
2930;SDS011;1475;51.454;7.150;2022-08-04T08:33:44;5.85;;;2.78;;
2930;SDS011;1475;51.454;7.150;2022-08-04T08:36:14;4.50;;;2.50;;
2930;SDS011;1475;51.454;7.150;2022-08-04T08:38:47;3.75;;;2.90;;
2930;SDS011;1475;51.454;7.150;2022-08-04T08:47:26;4.70;;;2.87;;
2930;SDS011;1475;51.454;7.150;2022-08-04T08:50:17;4.22;;;2.60;;
2930;SDS011;1475;51.454;7.150;2022-08-04T08:53:09;5.00;;;2.70;;
2930;SDS011;1475;51.454;7.150;2022-08-04T08:55:51;4.40;;;3.00;;
2930;SDS011;1475;51.454;7.150;2022-08-04T08:58:40;5.60;;;2.53;;
2930;SDS011;1475;51.454;7.150;2022-08-04T09:01:19;4.70;;;2.17;;
2930;SDS011;1475;51.454;7.150;2022-08-04T09:04:18;5.00;;;3.10;;
2930;SDS011;1475;51.454;7.150;2022-08-04T09:07:12;3.70;;;2.45;;
2930;SDS011;1475;51.454;7.150;2022-08-04T09:10:05;5.50;;;2.78;;
2930;SDS011;1475;51.454;7.150;2022-08-04T09:12:38;3.63;;;2.10;;
2930;SDS011;1475;51.454;7.150;2022-08-04T09:15:12;5.70;;;2.45;;
2930;SDS011;1475;51.454;7.150;2022-08-04T09:17:44;4.05;;;2.38;;
2930;SDS011;1475;51.454;7.150;2022-08-04T09:20:18;5.38;;;3.15;;
2930;SDS011;1475;51.454;7.150;2022-08-04T09:22:57;4.88;;;2.30;;
2930;SDS011;1475;51.454;7.150;2022-08-04T09:25:33;4.35;;;2.20;;
2930;SDS011;1475;51.454;7.150;2022-08-04T09:28:06;4.03;;;2.40;;
2930;SDS011;1475;51.454;7.150;2022-08-04T09:30:39;3.47;;;2.10;;
2930;SDS011;1475;51.454;7.150;2022-08-04T09:33:17;5.82;;;2.50;;
2930;SDS011;1475;51.454;7.150;2022-08-04T09:35:56;5.47;;;2.63;;
2930;SDS011;1475;51.454;7.150;2022-08-04T09:38:29;3.30;;;2.15;;
2930;SDS011;1475;51.454;7.150;2022-08-04T09:41:01;3.90;;;2.20;;
2930;SDS011;1475;51.454;7.150;2022-08-04T09:43:42;3.72;;;2.30;;
2930;SDS011;1475;51.454;7.150;2022-08-04T09:46:19;3.57;;;2.23;;
2930;SDS011;1475;51.454;7.150;2022-08-04T09:48:52;4.30;;;2.40;;
2930;SDS011;1475;51.454;7.150;2022-08-04T09:51:24;5.50;;;2.22;;
2930;SDS011;1475;51.454;7.150;2022-08-04T09:54:13;4.28;;;2.10;;
2930;SDS011;1475;51.454;7.150;2022-08-04T09:56:47;3.30;;;2.40;;
2930;SDS011;1475;51.454;7.150;2022-08-04T09:59:24;5.65;;;2.10;;
2930;SDS011;1475;51.454;7.150;2022-08-04T10:01:55;3.80;;;2.03;;
2930;SDS011;1475;51.454;7.150;2022-08-04T10:04:29;4.20;;;2.22;;
2930;SDS011;1475;51.454;7.150;2022-08-04T10:07:08;4.53;;;2.70;;
2930;SDS011;1475;51.454;7.150;2022-08-04T10:10:02;5.43;;;2.37;;
2930;SDS011;1475;51.454;7.150;2022-08-04T10:12:43;5.18;;;2.83;;
2930;SDS011;1475;51.454;7.150;2022-08-04T10:15:33;7.18;;;2.60;;
2930;SDS011;1475;51.454;7.150;2022-08-04T10:18:08;4.60;;;2.28;;
2930;SDS011;1475;51.454;7.150;2022-08-04T10:20:50;6.40;;;2.50;;
2930;SDS011;1475;51.454;7.150;2022-08-04T10:23:37;6.07;;;2.50;;
2930;SDS011;1475;51.454;7.150;2022-08-04T10:26:24;5.15;;;2.22;;
2930;SDS011;1475;51.454;7.150;2022-08-04T10:28:57;5.47;;;2.20;;
2930;SDS011;1475;51.454;7.150;2022-08-04T10:31:29;4.95;;;2.55;;
2930;SDS011;1475;51.454;7.150;2022-08-04T10:34:01;6.50;;;2.78;;
2930;SDS011;1475;51.454;7.150;2022-08-04T10:36:38;4.30;;;2.35;;
2930;SDS011;1475;51.454;7.150;2022-08-04T10:39:11;7.30;;;2.13;;
2930;SDS011;1475;51.454;7.150;2022-08-04T10:41:45;5.00;;;2.47;;
2930;SDS011;1475;51.454;7.150;2022-08-04T10:44:19;3.97;;;2.33;;
2930;SDS011;1475;51.454;7.150;2022-08-04T10:46:54;4.20;;;2.50;;
2930;SDS011;1475;51.454;7.150;2022-08-04T10:49:28;5.78;;;3.00;;
2930;SDS011;1475;51.454;7.150;2022-08-04T10:52:04;7.13;;;2.90;;
2930;SDS011;1475;51.454;7.150;2022-08-04T10:54:38;4.97;;;2.85;;
2930;SDS011;1475;51.454;7.150;2022-08-04T10:57:13;11.75;;;3.60;;
2930;SDS011;1475;51.454;7.150;2022-08-04T10:59:48;5.05;;;2.97;;
2930;SDS011;1475;51.454;7.150;2022-08-04T11:02:24;5.60;;;3.28;;
2930;SDS011;1475;51.454;7.150;2022-08-04T11:04:58;6.20;;;3.60;;
2930;SDS011;1475;51.454;7.150;2022-08-04T11:07:32;8.75;;;4.05;;
2930;SDS011;1475;51.454;7.150;2022-08-04T11:10:02;7.13;;;3.13;;
2930;SDS011;1475;51.454;7.150;2022-08-04T11:12:31;8.13;;;3.60;;
2930;SDS011;1475;51.454;7.150;2022-08-04T11:15:01;5.20;;;3.90;;
2930;SDS011;1475;51.454;7.150;2022-08-04T11:17:34;6.57;;;3.70;;
2930;SDS011;1475;51.454;7.150;2022-08-04T11:20:06;10.68;;;4.03;;
2930;SDS011;1475;51.454;7.150;2022-08-04T11:22:41;7.70;;;4.28;;
2930;SDS011;1475;51.454;7.150;2022-08-04T11:25:16;9.77;;;3.97;;
2930;SDS011;1475;51.454;7.150;2022-08-04T11:27:49;7.85;;;4.00;;
2930;SDS011;1475;51.454;7.150;2022-08-04T11:30:25;7.38;;;3.90;;
2930;SDS011;1475;51.454;7.150;2022-08-04T11:33:00;7.10;;;3.88;;
2930;SDS011;1475;51.454;7.150;2022-08-04T11:35:33;7.00;;;3.53;;
2930;SDS011;1475;51.454;7.150;2022-08-04T11:38:08;7.13;;;3.70;;
2930;SDS011;1475;51.454;7.150;2022-08-04T11:40:40;7.55;;;4.10;;
2930;SDS011;1475;51.454;7.150;2022-08-04T11:43:09;9.18;;;3.70;;
2930;SDS011;1475;51.454;7.150;2022-08-04T11:45:44;6.30;;;3.10;;
2930;SDS011;1475;51.454;7.150;2022-08-04T11:48:18;9.18;;;3.72;;
2930;SDS011;1475;51.454;7.150;2022-08-04T11:50:49;7.20;;;3.70;;
2930;SDS011;1475;51.454;7.150;2022-08-04T11:53:22;7.80;;;3.60;;
2930;SDS011;1475;51.454;7.150;2022-08-04T11:55:51;6.68;;;3.40;;
2930;SDS011;1475;51.454;7.150;2022-08-04T11:58:19;8.83;;;3.80;;
2930;SDS011;1475;51.454;7.150;2022-08-04T12:00:50;8.98;;;4.07;;
2930;SDS011;1475;51.454;7.150;2022-08-04T12:03:23;5.82;;;3.30;;
2930;SDS011;1475;51.454;7.150;2022-08-04T12:06:03;4.28;;;2.72;;
2930;SDS011;1475;51.454;7.150;2022-08-04T12:08:42;5.90;;;2.80;;
2930;SDS011;1475;51.454;7.150;2022-08-04T12:11:20;5.32;;;2.90;;
2930;SDS011;1475;51.454;7.150;2022-08-04T12:13:56;7.15;;;3.00;;
2930;SDS011;1475;51.454;7.150;2022-08-04T12:16:34;9.63;;;3.05;;
2930;SDS011;1475;51.454;7.150;2022-08-04T12:19:12;5.50;;;2.78;;
2930;SDS011;1475;51.454;7.150;2022-08-04T12:21:47;5.68;;;2.92;;
2930;SDS011;1475;51.454;7.150;2022-08-04T12:24:19;6.60;;;3.25;;
2930;SDS011;1475;51.454;7.150;2022-08-04T12:26:48;7.40;;;2.55;;
2930;SDS011;1475;51.454;7.150;2022-08-04T12:29:17;5.55;;;3.15;;
2930;SDS011;1475;51.454;7.150;2022-08-04T12:31:48;4.18;;;2.50;;
2930;SDS011;1475;51.454;7.150;2022-08-04T12:34:21;7.00;;;3.10;;
2930;SDS011;1475;51.454;7.150;2022-08-04T12:36:57;7.88;;;3.10;;
2930;SDS011;1475;51.454;7.150;2022-08-04T12:39:29;5.22;;;3.17;;
2930;SDS011;1475;51.454;7.150;2022-08-04T12:42:00;6.97;;;3.30;;
2930;SDS011;1475;51.454;7.150;2022-08-04T12:44:30;7.40;;;3.25;;
2930;SDS011;1475;51.454;7.150;2022-08-04T12:47:00;4.78;;;2.88;;
2930;SDS011;1475;51.454;7.150;2022-08-04T12:49:30;5.88;;;2.90;;
2930;SDS011;1475;51.454;7.150;2022-08-04T12:51:57;11.02;;;3.60;;
2930;SDS011;1475;51.454;7.150;2022-08-04T12:54:25;5.63;;;3.00;;
2930;SDS011;1475;51.454;7.150;2022-08-04T12:56:56;5.07;;;2.70;;
2930;SDS011;1475;51.454;7.150;2022-08-04T12:59:24;4.97;;;2.90;;
2930;SDS011;1475;51.454;7.150;2022-08-04T13:01:59;8.23;;;3.42;;
2930;SDS011;1475;51.454;7.150;2022-08-04T13:04:26;6.95;;;3.00;;
2930;SDS011;1475;51.454;7.150;2022-08-04T13:06:56;6.68;;;3.13;;
2930;SDS011;1475;51.454;7.150;2022-08-04T13:09:27;6.60;;;3.80;;
2930;SDS011;1475;51.454;7.150;2022-08-04T13:11:58;8.73;;;4.20;;
2930;SDS011;1475;51.454;7.150;2022-08-04T13:14:29;7.95;;;4.15;;
2930;SDS011;1475;51.454;7.150;2022-08-04T13:17:00;8.63;;;3.60;;
2930;SDS011;1475;51.454;7.150;2022-08-04T13:19:30;10.07;;;3.80;;
2930;SDS011;1475;51.454;7.150;2022-08-04T13:21:57;9.18;;;4.05;;
2930;SDS011;1475;51.454;7.150;2022-08-04T13:24:25;9.63;;;4.22;;
2930;SDS011;1475;51.454;7.150;2022-08-04T13:26:54;9.13;;;3.90;;
2930;SDS011;1475;51.454;7.150;2022-08-04T13:29:26;8.35;;;4.10;;
2930;SDS011;1475;51.454;7.150;2022-08-04T13:31:59;7.78;;;3.42;;
2930;SDS011;1475;51.454;7.150;2022-08-04T13:34:27;7.95;;;4.20;;
2930;SDS011;1475;51.454;7.150;2022-08-04T13:36:55;9.25;;;3.47;;
2930;SDS011;1475;51.454;7.150;2022-08-04T13:39:23;7.55;;;3.55;;
2930;SDS011;1475;51.454;7.150;2022-08-04T13:41:53;8.93;;;3.50;;
2930;SDS011;1475;51.454;7.150;2022-08-04T13:44:26;7.30;;;3.28;;
2930;SDS011;1475;51.454;7.150;2022-08-04T13:46:55;7.80;;;3.78;;
2930;SDS011;1475;51.454;7.150;2022-08-04T13:49:26;6.22;;;3.92;;
2930;SDS011;1475;51.454;7.150;2022-08-04T13:51:53;9.25;;;3.92;;
2930;SDS011;1475;51.454;7.150;2022-08-04T13:54:22;8.35;;;3.50;;
2930;SDS011;1475;51.454;7.150;2022-08-04T13:56:53;5.80;;;3.10;;
2930;SDS011;1475;51.454;7.150;2022-08-04T13:59:26;7.47;;;3.60;;
2930;SDS011;1475;51.454;7.150;2022-08-04T14:01:58;7.15;;;3.30;;
2930;SDS011;1475;51.454;7.150;2022-08-04T14:04:29;5.60;;;3.33;;
2930;SDS011;1475;51.454;7.150;2022-08-04T14:07:01;4.93;;;3.00;;
2930;SDS011;1475;51.454;7.150;2022-08-04T14:09:32;6.88;;;3.42;;
2930;SDS011;1475;51.454;7.150;2022-08-04T14:12:04;7.13;;;3.38;;
2930;SDS011;1475;51.454;7.150;2022-08-04T14:14:35;4.90;;;3.60;;
2930;SDS011;1475;51.454;7.150;2022-08-04T14:17:10;4.45;;;2.65;;
2930;SDS011;1475;51.454;7.150;2022-08-04T14:19:49;6.40;;;3.20;;
2930;SDS011;1475;51.454;7.150;2022-08-04T14:22:31;5.75;;;3.10;;
2930;SDS011;1475;51.454;7.150;2022-08-04T14:25:01;5.93;;;3.40;;
2930;SDS011;1475;51.454;7.150;2022-08-04T14:27:39;5.25;;;3.30;;
2930;SDS011;1475;51.454;7.150;2022-08-04T14:30:20;7.50;;;3.40;;
2930;SDS011;1475;51.454;7.150;2022-08-04T14:32:55;6.88;;;3.13;;
2930;SDS011;1475;51.454;7.150;2022-08-04T14:35:24;6.82;;;3.25;;
2930;SDS011;1475;51.454;7.150;2022-08-04T14:37:52;6.40;;;3.30;;
2930;SDS011;1475;51.454;7.150;2022-08-04T14:40:23;7.22;;;2.92;;
2930;SDS011;1475;51.454;7.150;2022-08-04T14:42:51;5.18;;;2.70;;
2930;SDS011;1475;51.454;7.150;2022-08-04T14:45:24;5.93;;;2.90;;
2930;SDS011;1475;51.454;7.150;2022-08-04T14:47:54;4.35;;;2.58;;
2930;SDS011;1475;51.454;7.150;2022-08-04T14:50:31;5.95;;;3.03;;
2930;SDS011;1475;51.454;7.150;2022-08-04T14:53:04;8.85;;;3.40;;
2930;SDS011;1475;51.454;7.150;2022-08-04T14:55:32;6.20;;;3.50;;
2930;SDS011;1475;51.454;7.150;2022-08-04T14:57:59;5.60;;;2.90;;
2930;SDS011;1475;51.454;7.150;2022-08-04T15:00:28;5.60;;;3.38;;
2930;SDS011;1475;51.454;7.150;2022-08-04T15:02:59;4.47;;;3.08;;
2930;SDS011;1475;51.454;7.150;2022-08-04T15:05:28;7.45;;;3.38;;
2930;SDS011;1475;51.454;7.150;2022-08-04T15:07:55;6.72;;;3.10;;
2930;SDS011;1475;51.454;7.150;2022-08-04T15:10:22;4.90;;;3.08;;
2930;SDS011;1475;51.454;7.150;2022-08-04T15:12:50;7.10;;;2.63;;
2930;SDS011;1475;51.454;7.150;2022-08-04T15:15:18;4.63;;;2.70;;
2930;SDS011;1475;51.454;7.150;2022-08-04T15:17:46;5.05;;;3.00;;
2930;SDS011;1475;51.454;7.150;2022-08-04T15:20:13;4.95;;;3.17;;
2930;SDS011;1475;51.454;7.150;2022-08-04T15:22:41;4.70;;;3.15;;
2930;SDS011;1475;51.454;7.150;2022-08-04T15:25:08;6.47;;;3.40;;
2930;SDS011;1475;51.454;7.150;2022-08-04T15:27:35;7.93;;;3.67;;
2930;SDS011;1475;51.454;7.150;2022-08-04T15:30:05;5.65;;;3.17;;
2930;SDS011;1475;51.454;7.150;2022-08-04T15:32:33;21.85;;;4.00;;
2930;SDS011;1475;51.454;7.150;2022-08-04T15:35:10;7.87;;;3.17;;
2930;SDS011;1475;51.454;7.150;2022-08-04T15:37:38;5.67;;;3.10;;
2930;SDS011;1475;51.454;7.150;2022-08-04T15:40:15;7.47;;;2.97;;
2930;SDS011;1475;51.454;7.150;2022-08-04T15:42:45;6.25;;;3.35;;
2930;SDS011;1475;51.454;7.150;2022-08-04T15:45:18;6.78;;;2.75;;
2930;SDS011;1475;51.454;7.150;2022-08-04T15:48:10;5.00;;;3.15;;
2930;SDS011;1475;51.454;7.150;2022-08-04T15:51:03;5.68;;;3.30;;
2930;SDS011;1475;51.454;7.150;2022-08-04T15:56:47;6.70;;;3.60;;
2930;SDS011;1475;51.454;7.150;2022-08-04T15:59:15;7.80;;;3.25;;
2930;SDS011;1475;51.454;7.150;2022-08-04T16:01:42;5.60;;;3.20;;
2930;SDS011;1475;51.454;7.150;2022-08-04T16:04:19;6.97;;;2.95;;
2930;SDS011;1475;51.454;7.150;2022-08-04T16:06:49;5.60;;;3.10;;
2930;SDS011;1475;51.454;7.150;2022-08-04T16:09:23;6.53;;;3.42;;
2930;SDS011;1475;51.454;7.150;2022-08-04T16:11:51;5.47;;;3.72;;
2930;SDS011;1475;51.454;7.150;2022-08-04T16:14:29;6.28;;;3.67;;
2930;SDS011;1475;51.454;7.150;2022-08-04T16:16:57;7.82;;;3.30;;
2930;SDS011;1475;51.454;7.150;2022-08-04T16:19:48;6.22;;;3.20;;
2930;SDS011;1475;51.454;7.150;2022-08-04T16:22:34;5.15;;;3.00;;
2930;SDS011;1475;51.454;7.150;2022-08-04T16:25:03;4.70;;;2.80;;
2930;SDS011;1475;51.454;7.150;2022-08-04T16:27:36;6.40;;;2.88;;
2930;SDS011;1475;51.454;7.150;2022-08-04T16:30:04;4.95;;;3.00;;
2930;SDS011;1475;51.454;7.150;2022-08-04T16:32:38;6.00;;;3.00;;
2930;SDS011;1475;51.454;7.150;2022-08-04T16:35:19;6.28;;;2.95;;
2930;SDS011;1475;51.454;7.150;2022-08-04T16:37:51;6.90;;;3.05;;